Time;durP1;ratioP1;P1;durP2;ratioP2;P2;SDS_P1;SDS_P2;PMS_P1;PMS_P2;Temp;Humidity;BMP_temperature;BMP_pressure;BME280_temperature;BME280_humidity;BME280_pressure;Samples;Min_cycle;Max_cycle;Signal;HPM_P1;HPM_P2
2024/04/07 11:33:09;;;;;;;;;5.00;3.00;;;;;;;;5113040;27;50970;-69
2024/04/07 11:35:34;;;;;;;;;4.00;3.00;;;;;;;;5091927;27;51248;-70
2024/04/07 11:40:50;;;;;;;;;2.00;2.00;;;;;;;;5049110;28;51421;-72
2024/04/07 11:43:16;;;;;;;;;3.00;2.00;;;;;;;;5026078;28;51020;-71
2024/04/07 11:45:41;;;;;;;;;3.00;2.00;;;;;;;;5020027;27;51321;-72
2024/04/07 11:48:07;;;;;;;;;3.00;3.00;;;;;;;;5004352;28;52768;-72
2024/04/07 11:50:33;;;;;;;;;2.67;2.67;;;;;;;;5005879;27;51018;-73
2024/04/07 11:52:58;;;;;;;;;3.00;2.67;;;;;;;;5006254;27;50984;-72
2024/04/07 11:55:30;;;;;;;;;4.00;2.67;;;;;;;;5004957;27;51262;-73
2024/04/07 11:57:55;;;;;;;;;2.00;2.00;;;;;;;;5002531;28;51175;-72
2024/04/07 12:00:21;;;;;;;;;3.00;2.67;;;;;;;;5012083;27;51083;-71
2024/04/07 12:02:46;;;;;;;;;3.00;2.33;;;;;;;;4995640;27;51081;-73
2024/04/07 12:05:13;;;;;;;;;5.33;4.33;;;;;;;;4997556;27;51269;-78
2024/04/07 12:07:38;;;;;;;;;2.00;2.00;;;;;;;;4993090;28;51219;-73
2024/04/07 12:10:03;;;;;;;;;3.33;2.00;;;;;;;;4999528;27;51145;-72
2024/04/07 12:12:30;;;;;;;;;6.33;3.00;;;;;;;;4992228;27;51386;-73
2024/04/07 12:14:55;;;;;;;;;3.00;3.00;;;;;;;;5005523;27;51085;-71
2024/04/07 12:17:20;;;;;;;;;3.00;3.00;;;;;;;;5056288;27;52084;-72
2024/04/07 12:19:46;;;;;;;;;3.00;3.00;;;;;;;;5010140;27;50893;-74
2024/04/07 12:22:18;;;;;;;;;6.00;4.00;;;;;;;;5030533;27;51066;-74
2024/04/07 12:24:44;;;;;;;;;4.33;4.00;;;;;;;;5016479;28;51549;-77
2024/04/07 12:27:10;;;;;;;;;5.33;5.33;;;;;;;;4996578;28;52001;-81
2024/04/07 12:29:35;;;;;;;;;5.00;4.00;;;;;;;;4987511;27;50839;-74
2024/04/07 12:32:00;;;;;;;;;5.67;4.00;;;;;;;;5012338;27;51246;-70
2024/04/07 12:34:28;;;;;;;;;6.33;6.00;;;;;;;;4998655;27;51421;-72
2024/04/07 12:36:54;;;;;;;;;5.33;4.33;;;;;;;;5000218;27;52200;-79
2024/04/07 12:39:19;;;;;;;;;4.00;4.00;;;;;;;;5001639;27;51294;-73
2024/04/07 12:41:45;;;;;;;;;4.33;4.00;;;;;;;;4999855;27;51596;-77
2024/04/07 12:44:11;;;;;;;;;5.00;4.00;;;;;;;;4999465;27;51090;-77
2024/04/07 12:46:36;;;;;;;;;6.00;4.00;;;;;;;;4990373;27;51907;-69
2024/04/07 12:49:02;;;;;;;;;4.67;4.00;;;;;;;;4997186;28;51072;-71
2024/04/07 12:51:27;;;;;;;;;3.67;3.67;;;;;;;;4991517;28;51191;-69
2024/04/07 12:53:53;;;;;;;;;4.50;4.00;;;;;;;;4989820;27;50995;-68
2024/04/07 12:56:18;;;;;;;;;5.33;5.33;;;;;;;;4975952;27;51822;-69
2024/04/07 12:58:44;;;;;;;;;6.67;6.33;;;;;;;;4986298;28;50905;-72
2024/04/07 13:01:09;;;;;;;;;5.00;4.00;;;;;;;;4977670;27;51651;-70
2024/04/07 13:03:35;;;;;;;;;6.33;6.33;;;;;;;;4980207;27;51253;-70
2024/04/07 13:06:01;;;;;;;;;4.67;3.33;;;;;;;;4991951;27;51740;-71
2024/04/07 13:08:26;;;;;;;;;4.00;3.00;;;;;;;;5001482;27;51272;-70
2024/04/07 13:10:53;;;;;;;;;4.00;3.00;;;;;;;;4986472;28;50882;-69
2024/04/07 13:13:18;;;;;;;;;3.00;3.00;;;;;;;;4985145;28;51230;-68
2024/04/07 13:15:46;;;;;;;;;4.00;3.00;;;;;;;;5008417;27;51294;-68
2024/04/07 13:18:11;;;;;;;;;3.33;3.33;;;;;;;;4982544;28;51083;-67
2024/04/07 13:20:36;;;;;;;;;3.33;3.00;;;;;;;;4977652;27;51271;-68
2024/04/07 13:23:01;;;;;;;;;4.00;4.00;;;;;;;;4996476;27;51233;-68
2024/04/07 13:25:26;;;;;;;;;4.00;4.00;;;;;;;;4978753;27;51975;-70
2024/04/07 13:27:51;;;;;;;;;4.00;4.00;;;;;;;;4981239;28;51234;-68
2024/04/07 13:30:17;;;;;;;;;5.00;5.00;;;;;;;;4988447;27;51087;-73
2024/04/07 13:32:45;;;;;;;;;4.67;4.00;;;;;;;;4993577;27;51220;-73
2024/04/07 13:35:10;;;;;;;;;5.00;4.00;;;;;;;;4978087;27;51005;-72
2024/04/07 13:37:36;;;;;;;;;4.00;2.33;;;;;;;;4979913;27;51113;-71
2024/04/07 13:40:02;;;;;;;;;4.00;4.00;;;;;;;;4999500;27;51205;-68
2024/04/07 13:42:27;;;;;;;;;5.00;3.00;;;;;;;;4986808;27;51338;-72
2024/04/07 13:44:52;;;;;;;;;4.00;4.00;;;;;;;;4985612;27;51116;-71
2024/04/07 13:47:18;;;;;;;;;4.00;4.00;;;;;;;;4986393;27;51092;-67
2024/04/07 13:49:43;;;;;;;;;4.00;4.00;;;;;;;;4988738;27;51129;-69
2024/04/07 13:52:09;;;;;;;;;4.00;4.00;;;;;;;;4983705;28;50807;-71
2024/04/07 13:54:34;;;;;;;;;3.00;3.00;;;;;;;;4977037;27;51519;-79
2024/04/07 13:57:02;;;;;;;;;4.00;4.00;;;;;;;;4977821;27;51154;-75
2024/04/07 13:59:27;;;;;;;;;4.33;4.00;;;;;;;;4999310;27;51211;-72
2024/04/07 14:01:52;;;;;;;;;5.67;5.00;;;;;;;;4984691;27;51282;-73
2024/04/07 14:04:19;;;;;;;;;5.00;4.33;;;;;;;;4985805;27;53381;-80
2024/04/07 14:06:44;;;;;;;;;5.00;5.00;;;;;;;;4988257;27;51035;-78
2024/04/07 14:09:09;;;;;;;;;5.00;5.00;;;;;;;;4986230;27;51383;-78
2024/04/07 14:11:34;;;;;;;;;4.00;4.00;;;;;;;;5006789;27;51308;-77
2024/04/07 14:13:59;;;;;;;;;4.00;4.00;;;;;;;;5007024;27;51012;-74
2024/04/07 14:16:31;;;;;;;;;5.33;5.00;;;;;;;;4979417;27;50915;-77
2024/04/07 14:18:57;;;;;;;;;6.00;5.00;;;;;;;;4978733;28;51177;-78
2024/04/07 14:21:22;;;;;;;;;5.00;4.00;;;;;;;;4981790;27;51555;-76
2024/04/07 14:23:47;;;;;;;;;6.33;6.33;;;;;;;;4981019;28;51816;-75
2024/04/07 14:26:13;;;;;;;;;4.33;4.00;;;;;;;;4979660;27;51111;-76
2024/04/07 14:28:38;;;;;;;;;5.33;5.00;;;;;;;;4989871;27;51310;-76
2024/04/07 14:31:03;;;;;;;;;4.00;4.00;;;;;;;;4985503;27;51524;-76
2024/04/07 14:33:29;;;;;;;;;5.00;5.00;;;;;;;;4983984;27;51274;-74
2024/04/07 14:35:54;;;;;;;;;5.00;5.00;;;;;;;;4983637;27;51298;-77
2024/04/07 14:38:28;;;;;;;;;5.33;5.00;;;;;;;;5008869;27;50939;-76
2024/04/07 14:40:57;;;;;;;;;5.00;4.00;;;;;;;;4990575;27;51132;-74
2024/04/07 14:43:22;;;;;;;;;6.00;6.00;;;;;;;;4981123;28;51076;-77
2024/04/07 14:45:54;;;;;;;;;4.67;4.00;;;;;;;;4985823;27;50463;-75
